sensor_id;sensor_type;location;lat;lon;timestamp;P1;durP1;ratioP1;P2;durP2;ratioP2
47365;SDS011;33105;47.964;7.982;2023-09-19T00:01:06;5.20;;;1.90;;
47365;SDS011;33105;47.964;7.982;2023-09-19T00:04:12;5.68;;;2.28;;
47365;SDS011;33105;47.964;7.982;2023-09-19T00:07:13;2.92;;;2.00;;
47365;SDS011;33105;47.964;7.982;2023-09-19T00:10:15;6.60;;;2.40;;
47365;SDS011;33105;47.964;7.982;2023-09-19T00:13:19;6.72;;;2.72;;
47365;SDS011;33105;47.964;7.982;2023-09-19T00:16:21;5.60;;;2.30;;
47365;SDS011;33105;47.964;7.982;2023-09-19T00:19:23;6.03;;;2.55;;
47365;SDS011;33105;47.964;7.982;2023-09-19T00:22:25;5.10;;;2.10;;
47365;SDS011;33105;47.964;7.982;2023-09-19T00:25:28;4.10;;;1.75;;
47365;SDS011;33105;47.964;7.982;2023-09-19T00:28:30;4.05;;;2.08;;
47365;SDS011;33105;47.964;7.982;2023-09-19T00:31:33;8.50;;;2.25;;
47365;SDS011;33105;47.964;7.982;2023-09-19T00:34:36;7.60;;;2.50;;
47365;SDS011;33105;47.964;7.982;2023-09-19T00:37:38;9.10;;;2.38;;
47365;SDS011;33105;47.964;7.982;2023-09-19T00:40:43;3.50;;;2.30;;
47365;SDS011;33105;47.964;7.982;2023-09-19T00:43:47;6.05;;;2.20;;
47365;SDS011;33105;47.964;7.982;2023-09-19T00:46:48;5.38;;;2.22;;
47365;SDS011;33105;47.964;7.982;2023-09-19T00:49:54;5.07;;;2.30;;
47365;SDS011;33105;47.964;7.982;2023-09-19T00:52:57;6.97;;;2.40;;
47365;SDS011;33105;47.964;7.982;2023-09-19T00:56:01;4.60;;;2.15;;
47365;SDS011;33105;47.964;7.982;2023-09-19T00:59:06;4.63;;;1.90;;
47365;SDS011;33105;47.964;7.982;2023-09-19T01:02:09;5.43;;;1.85;;
47365;SDS011;33105;47.964;7.982;2023-09-19T01:05:11;3.63;;;2.00;;
47365;SDS011;33105;47.964;7.982;2023-09-19T01:08:14;7.20;;;2.20;;
47365;SDS011;33105;47.964;7.982;2023-09-19T01:11:38;4.03;;;1.88;;
47365;SDS011;33105;47.964;7.982;2023-09-19T01:14:55;4.25;;;2.00;;
47365;SDS011;33105;47.964;7.982;2023-09-19T01:21:11;9.60;;;2.50;;
47365;SDS011;33105;47.964;7.982;2023-09-19T01:27:53;2.47;;;1.40;;
47365;SDS011;33105;47.964;7.982;2023-09-19T01:31:16;3.50;;;1.48;;
47365;SDS011;33105;47.964;7.982;2023-09-19T01:34:20;2.72;;;1.35;;
47365;SDS011;33105;47.964;7.982;2023-09-19T01:37:21;3.20;;;1.02;;
47365;SDS011;33105;47.964;7.982;2023-09-19T01:40:28;2.17;;;0.82;;
47365;SDS011;33105;47.964;7.982;2023-09-19T01:43:31;2.03;;;0.95;;
47365;SDS011;33105;47.964;7.982;2023-09-19T01:46:44;7.57;;;1.10;;
47365;SDS011;33105;47.964;7.982;2023-09-19T01:56:28;6.93;;;0.95;;
47365;SDS011;33105;47.964;7.982;2023-09-19T01:59:48;2.63;;;1.10;;
47365;SDS011;33105;47.964;7.982;2023-09-19T02:02:56;6.45;;;1.00;;
47365;SDS011;33105;47.964;7.982;2023-09-19T02:06:00;3.72;;;1.00;;
47365;SDS011;33105;47.964;7.982;2023-09-19T02:09:02;6.43;;;1.55;;
47365;SDS011;33105;47.964;7.982;2023-09-19T02:12:05;2.00;;;0.75;;
47365;SDS011;33105;47.964;7.982;2023-09-19T02:15:07;3.78;;;1.20;;
47365;SDS011;33105;47.964;7.982;2023-09-19T02:18:10;4.20;;;0.95;;
47365;SDS011;33105;47.964;7.982;2023-09-19T02:21:17;7.57;;;1.10;;
47365;SDS011;33105;47.964;7.982;2023-09-19T02:24:20;2.90;;;1.08;;
47365;SDS011;33105;47.964;7.982;2023-09-19T02:27:21;3.17;;;1.00;;
47365;SDS011;33105;47.964;7.982;2023-09-19T02:30:24;4.43;;;1.17;;
47365;SDS011;33105;47.964;7.982;2023-09-19T02:33:31;1.88;;;0.88;;
47365;SDS011;33105;47.964;7.982;2023-09-19T02:36:34;4.55;;;0.80;;
47365;SDS011;33105;47.964;7.982;2023-09-19T02:39:37;4.57;;;1.20;;
47365;SDS011;33105;47.964;7.982;2023-09-19T02:42:40;1.60;;;0.70;;
47365;SDS011;33105;47.964;7.982;2023-09-19T02:45:44;1.88;;;1.13;;
47365;SDS011;33105;47.964;7.982;2023-09-19T02:48:47;3.13;;;1.05;;
47365;SDS011;33105;47.964;7.982;2023-09-19T02:51:49;2.42;;;0.90;;
47365;SDS011;33105;47.964;7.982;2023-09-19T02:54:51;3.42;;;1.27;;
47365;SDS011;33105;47.964;7.982;2023-09-19T02:57:54;2.40;;;1.00;;
47365;SDS011;33105;47.964;7.982;2023-09-19T03:00:58;4.15;;;1.00;;
47365;SDS011;33105;47.964;7.982;2023-09-19T03:04:00;1.70;;;1.00;;
47365;SDS011;33105;47.964;7.982;2023-09-19T03:07:03;3.03;;;1.35;;
47365;SDS011;33105;47.964;7.982;2023-09-19T03:10:08;3.85;;;1.10;;
47365;SDS011;33105;47.964;7.982;2023-09-19T03:13:11;4.82;;;1.05;;
47365;SDS011;33105;47.964;7.982;2023-09-19T03:16:14;1.05;;;0.90;;
47365;SDS011;33105;47.964;7.982;2023-09-19T03:19:16;4.25;;;1.10;;
47365;SDS011;33105;47.964;7.982;2023-09-19T03:22:20;5.55;;;1.08;;
47365;SDS011;33105;47.964;7.982;2023-09-19T03:25:23;1.00;;;0.80;;
47365;SDS011;33105;47.964;7.982;2023-09-19T03:28:27;3.20;;;1.10;;
47365;SDS011;33105;47.964;7.982;2023-09-19T03:31:32;4.07;;;1.08;;
47365;SDS011;33105;47.964;7.982;2023-09-19T03:34:35;3.05;;;1.02;;
47365;SDS011;33105;47.964;7.982;2023-09-19T03:37:39;7.70;;;1.20;;
47365;SDS011;33105;47.964;7.982;2023-09-19T03:40:43;1.80;;;0.98;;
47365;SDS011;33105;47.964;7.982;2023-09-19T03:43:46;4.15;;;1.48;;
47365;SDS011;33105;47.964;7.982;2023-09-19T03:46:49;1.60;;;1.10;;
47365;SDS011;33105;47.964;7.982;2023-09-19T03:49:51;2.75;;;1.10;;
47365;SDS011;33105;47.964;7.982;2023-09-19T03:52:57;2.60;;;1.17;;
47365;SDS011;33105;47.964;7.982;2023-09-19T03:56:02;4.65;;;1.33;;
47365;SDS011;33105;47.964;7.982;2023-09-19T03:59:11;3.00;;;1.17;;
47365;SDS011;33105;47.964;7.982;2023-09-19T04:02:13;2.90;;;1.08;;
47365;SDS011;33105;47.964;7.982;2023-09-19T04:05:24;2.75;;;1.17;;
47365;SDS011;33105;47.964;7.982;2023-09-19T04:08:26;2.25;;;1.20;;
47365;SDS011;33105;47.964;7.982;2023-09-19T04:11:28;2.95;;;1.05;;
47365;SDS011;33105;47.964;7.982;2023-09-19T04:14:31;5.45;;;1.35;;
47365;SDS011;33105;47.964;7.982;2023-09-19T04:17:34;4.25;;;1.25;;
47365;SDS011;33105;47.964;7.982;2023-09-19T04:20:36;2.38;;;0.98;;
47365;SDS011;33105;47.964;7.982;2023-09-19T04:23:38;3.22;;;1.23;;
47365;SDS011;33105;47.964;7.982;2023-09-19T04:26:40;2.70;;;1.00;;
47365;SDS011;33105;47.964;7.982;2023-09-19T04:29:43;3.97;;;1.40;;
47365;SDS011;33105;47.964;7.982;2023-09-19T04:32:45;3.13;;;1.08;;
47365;SDS011;33105;47.964;7.982;2023-09-19T04:35:52;3.00;;;1.10;;
47365;SDS011;33105;47.964;7.982;2023-09-19T04:38:55;5.80;;;1.50;;
47365;SDS011;33105;47.964;7.982;2023-09-19T04:41:56;6.07;;;1.40;;
47365;SDS011;33105;47.964;7.982;2023-09-19T04:44:58;2.35;;;1.10;;
47365;SDS011;33105;47.964;7.982;2023-09-19T04:48:02;4.63;;;1.20;;
47365;SDS011;33105;47.964;7.982;2023-09-19T04:51:05;4.15;;;1.30;;
47365;SDS011;33105;47.964;7.982;2023-09-19T04:54:07;4.32;;;1.50;;
47365;SDS011;33105;47.964;7.982;2023-09-19T04:57:10;2.63;;;1.60;;
47365;SDS011;33105;47.964;7.982;2023-09-19T05:00:13;2.28;;;1.77;;
47365;SDS011;33105;47.964;7.982;2023-09-19T05:03:16;10.55;;;1.95;;
47365;SDS011;33105;47.964;7.982;2023-09-19T05:06:18;2.95;;;1.70;;
47365;SDS011;33105;47.964;7.982;2023-09-19T05:09:23;6.13;;;1.45;;
47365;SDS011;33105;47.964;7.982;2023-09-19T05:12:25;2.28;;;1.40;;
47365;SDS011;33105;47.964;7.982;2023-09-19T05:15:28;2.25;;;1.45;;
47365;SDS011;33105;47.964;7.982;2023-09-19T05:18:30;3.22;;;1.70;;
47365;SDS011;33105;47.964;7.982;2023-09-19T05:21:33;5.40;;;1.60;;
47365;SDS011;33105;47.964;7.982;2023-09-19T05:24:36;3.63;;;1.50;;
47365;SDS011;33105;47.964;7.982;2023-09-19T05:27:38;3.92;;;1.75;;
47365;SDS011;33105;47.964;7.982;2023-09-19T05:30:39;3.35;;;1.80;;
47365;SDS011;33105;47.964;7.982;2023-09-19T05:33:42;3.85;;;1.60;;
47365;SDS011;33105;47.964;7.982;2023-09-19T05:36:45;4.90;;;1.90;;
47365;SDS011;33105;47.964;7.982;2023-09-19T05:39:46;4.55;;;1.85;;
47365;SDS011;33105;47.964;7.982;2023-09-19T05:42:48;3.42;;;1.80;;
47365;SDS011;33105;47.964;7.982;2023-09-19T05:45:52;5.65;;;2.00;;
47365;SDS011;33105;47.964;7.982;2023-09-19T05:48:55;6.88;;;1.70;;
47365;SDS011;33105;47.964;7.982;2023-09-19T05:52:01;4.70;;;2.03;;
47365;SDS011;33105;47.964;7.982;2023-09-19T05:55:06;4.40;;;2.03;;
47365;SDS011;33105;47.964;7.982;2023-09-19T05:58:10;4.18;;;2.08;;
47365;SDS011;33105;47.964;7.982;2023-09-19T06:01:14;9.18;;;1.88;;
47365;SDS011;33105;47.964;7.982;2023-09-19T06:04:16;8.32;;;2.42;;
47365;SDS011;33105;47.964;7.982;2023-09-19T06:07:18;5.05;;;1.95;;
47365;SDS011;33105;47.964;7.982;2023-09-19T06:10:19;5.07;;;2.00;;
47365;SDS011;33105;47.964;7.982;2023-09-19T06:13:29;3.50;;;1.90;;
47365;SDS011;33105;47.964;7.982;2023-09-19T06:16:32;4.40;;;1.70;;
47365;SDS011;33105;47.964;7.982;2023-09-19T06:19:33;5.85;;;1.80;;
47365;SDS011;33105;47.964;7.982;2023-09-19T06:22:35;1.88;;;1.50;;
47365;SDS011;33105;47.964;7.982;2023-09-19T06:25:38;4.60;;;1.38;;
47365;SDS011;33105;47.964;7.982;2023-09-19T06:28:40;2.00;;;1.50;;
47365;SDS011;33105;47.964;7.982;2023-09-19T06:31:44;3.95;;;1.75;;
47365;SDS011;33105;47.964;7.982;2023-09-19T06:34:51;5.40;;;1.60;;
47365;SDS011;33105;47.964;7.982;2023-09-19T06:37:56;4.05;;;1.75;;
47365;SDS011;33105;47.964;7.982;2023-09-19T06:40:59;5.50;;;1.70;;
47365;SDS011;33105;47.964;7.982;2023-09-19T06:44:02;4.18;;;1.80;;
47365;SDS011;33105;47.964;7.982;2023-09-19T06:47:05;1.88;;;1.60;;
47365;SDS011;33105;47.964;7.982;2023-09-19T06:50:08;3.35;;;1.60;;
47365;SDS011;33105;47.964;7.982;2023-09-19T06:53:14;8.23;;;1.75;;
47365;SDS011;33105;47.964;7.982;2023-09-19T06:56:16;4.53;;;2.47;;
47365;SDS011;33105;47.964;7.982;2023-09-19T06:59:18;4.18;;;2.67;;
47365;SDS011;33105;47.964;7.982;2023-09-19T07:02:20;5.85;;;1.70;;
47365;SDS011;33105;47.964;7.982;2023-09-19T07:05:24;2.70;;;1.70;;
47365;SDS011;33105;47.964;7.982;2023-09-19T07:08:26;4.80;;;1.67;;
47365;SDS011;33105;47.964;7.982;2023-09-19T07:11:29;3.67;;;1.13;;
47365;SDS011;33105;47.964;7.982;2023-09-19T07:14:33;5.20;;;1.40;;
47365;SDS011;33105;47.964;7.982;2023-09-19T07:17:34;8.95;;;2.33;;
47365;SDS011;33105;47.964;7.982;2023-09-19T07:20:37;4.57;;;1.50;;
47365;SDS011;33105;47.964;7.982;2023-09-19T07:23:40;11.40;;;1.92;;
47365;SDS011;33105;47.964;7.982;2023-09-19T07:26:42;3.13;;;1.13;;
47365;SDS011;33105;47.964;7.982;2023-09-19T07:29:45;6.25;;;1.60;;
47365;SDS011;33105;47.964;7.982;2023-09-19T07:32:47;1.58;;;1.20;;
47365;SDS011;33105;47.964;7.982;2023-09-19T07:35:49;2.28;;;1.15;;
47365;SDS011;33105;47.964;7.982;2023-09-19T07:38:51;3.67;;;1.83;;
47365;SDS011;33105;47.964;7.982;2023-09-19T07:41:52;5.15;;;1.52;;
47365;SDS011;33105;47.964;7.982;2023-09-19T07:44:55;6.13;;;1.75;;
47365;SDS011;33105;47.964;7.982;2023-09-19T07:47:58;3.65;;;1.45;;
47365;SDS011;33105;47.964;7.982;2023-09-19T07:51:03;6.57;;;1.60;;
47365;SDS011;33105;47.964;7.982;2023-09-19T07:54:09;4.15;;;1.88;;
47365;SDS011;33105;47.964;7.982;2023-09-19T07:57:12;3.15;;;1.20;;
47365;SDS011;33105;47.964;7.982;2023-09-19T08:00:13;4.35;;;1.42;;
47365;SDS011;33105;47.964;7.982;2023-09-19T08:03:15;3.53;;;1.40;;
47365;SDS011;33105;47.964;7.982;2023-09-19T08:06:17;4.50;;;1.33;;
47365;SDS011;33105;47.964;7.982;2023-09-19T08:09:19;2.42;;;1.17;;
47365;SDS011;33105;47.964;7.982;2023-09-19T08:12:22;3.38;;;1.27;;
47365;SDS011;33105;47.964;7.982;2023-09-19T08:15:24;4.93;;;2.03;;
47365;SDS011;33105;47.964;7.982;2023-09-19T08:18:26;1.30;;;0.85;;
47365;SDS011;33105;47.964;7.982;2023-09-19T08:21:31;3.53;;;1.38;;
47365;SDS011;33105;47.964;7.982;2023-09-19T08:24:33;4.32;;;1.40;;
47365;SDS011;33105;47.964;7.982;2023-09-19T08:27:35;3.75;;;1.50;;
47365;SDS011;33105;47.964;7.982;2023-09-19T08:30:37;2.85;;;1.10;;
47365;SDS011;33105;47.964;7.982;2023-09-19T08:33:42;3.17;;;1.40;;
47365;SDS011;33105;47.964;7.982;2023-09-19T08:36:46;2.75;;;1.10;;
47365;SDS011;33105;47.964;7.982;2023-09-19T08:39:50;3.22;;;0.98;;
47365;SDS011;33105;47.964;7.982;2023-09-19T08:42:54;2.83;;;1.33;;
47365;SDS011;33105;47.964;7.982;2023-09-19T08:45:58;4.53;;;1.10;;
47365;SDS011;33105;47.964;7.982;2023-09-19T08:49:16;5.45;;;1.33;;
47365;SDS011;33105;47.964;7.982;2023-09-19T08:52:25;3.42;;;1.00;;
47365;SDS011;33105;47.964;7.982;2023-09-19T08:55:35;4.13;;;1.13;;
47365;SDS011;33105;47.964;7.982;2023-09-19T09:01:54;6.30;;;1.27;;
47365;SDS011;33105;47.964;7.982;2023-09-19T09:04:57;5.95;;;1.45;;
47365;SDS011;33105;47.964;7.982;2023-09-19T09:08:00;4.18;;;1.33;;
47365;SDS011;33105;47.964;7.982;2023-09-19T09:11:04;5.72;;;1.27;;
47365;SDS011;33105;47.964;7.982;2023-09-19T09:14:08;3.72;;;1.50;;
47365;SDS011;33105;47.964;7.982;2023-09-19T09:17:10;5.90;;;1.23;;
47365;SDS011;33105;47.964;7.982;2023-09-19T09:20:13;5.28;;;1.52;;
47365;SDS011;33105;47.964;7.982;2023-09-19T09:23:15;3.67;;;1.20;;
47365;SDS011;33105;47.964;7.982;2023-09-19T09:26:17;6.00;;;1.35;;
47365;SDS011;33105;47.964;7.982;2023-09-19T09:29:35;5.55;;;1.33;;
47365;SDS011;33105;47.964;7.982;2023-09-19T09:32:44;5.10;;;1.30;;
47365;SDS011;33105;47.964;7.982;2023-09-19T09:35:54;3.70;;;1.20;;
47365;SDS011;33105;47.964;7.982;2023-09-19T09:38:58;5.38;;;1.38;;
47365;SDS011;33105;47.964;7.982;2023-09-19T09:42:00;3.15;;;0.90;;
47365;SDS011;33105;47.964;7.982;2023-09-19T09:48:15;4.80;;;1.50;;
47365;SDS011;33105;47.964;7.982;2023-09-19T09:51:33;2.53;;;1.05;;
47365;SDS011;33105;47.964;7.982;2023-09-19T09:54:36;3.42;;;1.23;;
47365;SDS011;33105;47.964;7.982;2023-09-19T09:57:43;5.13;;;1.17;;
47365;SDS011;33105;47.964;7.982;2023-09-19T10:00:57;3.80;;;1.20;;
47365;SDS011;33105;47.964;7.982;2023-09-19T10:04:01;2.58;;;1.23;;
47365;SDS011;33105;47.964;7.982;2023-09-19T10:07:02;3.55;;;1.20;;
47365;SDS011;33105;47.964;7.982;2023-09-19T10:10:09;3.55;;;1.17;;
47365;SDS011;33105;47.964;7.982;2023-09-19T10:13:16;10.27;;;1.50;;
47365;SDS011;33105;47.964;7.982;2023-09-19T10:16:23;4.57;;;1.30;;
47365;SDS011;33105;47.964;7.982;2023-09-19T10:19:30;6.25;;;1.02;;
47365;SDS011;33105;47.964;7.982;2023-09-19T10:22:48;3.67;;;0.93;;
47365;SDS011;33105;47.964;7.982;2023-09-19T10:25:59;4.40;;;1.38;;
47365;SDS011;33105;47.964;7.982;2023-09-19T10:29:05;3.47;;;0.90;;
47365;SDS011;33105;47.964;7.982;2023-09-19T10:32:08;2.75;;;1.27;;
47365;SDS011;33105;47.964;7.982;2023-09-19T10:35:11;3.05;;;1.30;;
47365;SDS011;33105;47.964;7.982;2023-09-19T10:38:18;1.88;;;1.13;;
47365;SDS011;33105;47.964;7.982;2023-09-19T10:41:22;5.43;;;1.10;;
47365;SDS011;33105;47.964;7.982;2023-09-19T10:44:27;4.75;;;1.30;;
47365;SDS011;33105;47.964;7.982;2023-09-19T10:47:33;1.98;;;1.05;;
47365;SDS011;33105;47.964;7.982;2023-09-19T10:54:04;4.97;;;1.08;;
47365;SDS011;33105;47.964;7.982;2023-09-19T10:57:08;2.53;;;0.95;;
47365;SDS011;33105;47.964;7.982;2023-09-19T11:00:11;3.35;;;1.17;;
47365;SDS011;33105;47.964;7.982;2023-09-19T11:03:26;2.80;;;1.20;;
47365;SDS011;33105;47.964;7.982;2023-09-19T11:06:34;2.83;;;1.05;;
47365;SDS011;33105;47.964;7.982;2023-09-19T11:09:49;3.70;;;1.30;;
47365;SDS011;33105;47.964;7.982;2023-09-19T11:13:03;2.72;;;0.93;;
47365;SDS011;33105;47.964;7.982;2023-09-19T11:16:28;6.20;;;1.35;;
47365;SDS011;33105;47.964;7.982;2023-09-19T11:29:49;3.25;;;1.10;;
47365;SDS011;33105;47.964;7.982;2023-09-19T11:33:30;3.42;;;1.52;;
47365;SDS011;33105;47.964;7.982;2023-09-19T11:36:34;4.38;;;1.25;;
47365;SDS011;33105;47.964;7.982;2023-09-19T11:39:38;2.63;;;1.33;;
47365;SDS011;33105;47.964;7.982;2023-09-19T11:42:43;5.68;;;1.40;;
47365;SDS011;33105;47.964;7.982;2023-09-19T11:49:08;3.85;;;1.17;;
47365;SDS011;33105;47.964;7.982;2023-09-19T11:52:16;3.85;;;1.23;;
47365;SDS011;33105;47.964;7.982;2023-09-19T11:55:25;2.15;;;1.17;;
47365;SDS011;33105;47.964;7.982;2023-09-19T11:58:32;2.63;;;1.10;;
47365;SDS011;33105;47.964;7.982;2023-09-19T12:01:35;3.17;;;1.20;;
47365;SDS011;33105;47.964;7.982;2023-09-19T12:04:44;3.75;;;1.05;;
47365;SDS011;33105;47.964;7.982;2023-09-19T12:07:52;2.08;;;1.08;;
47365;SDS011;33105;47.964;7.982;2023-09-19T12:10:54;2.75;;;1.20;;
47365;SDS011;33105;47.964;7.982;2023-09-19T12:13:56;3.67;;;1.20;;
47365;SDS011;33105;47.964;7.982;2023-09-19T12:17:02;5.28;;;1.52;;
47365;SDS011;33105;47.964;7.982;2023-09-19T12:20:05;4.70;;;1.40;;
47365;SDS011;33105;47.964;7.982;2023-09-19T12:23:14;1.50;;;1.00;;
47365;SDS011;33105;47.964;7.982;2023-09-19T12:26:18;2.97;;;1.10;;
47365;SDS011;33105;47.964;7.982;2023-09-19T12:29:22;2.85;;;1.13;;
47365;SDS011;33105;47.964;7.982;2023-09-19T12:32:35;4.57;;;1.70;;
47365;SDS011;33105;47.964;7.982;2023-09-19T12:35:38;1.90;;;1.30;;
47365;SDS011;33105;47.964;7.982;2023-09-19T12:38:41;5.05;;;1.25;;
47365;SDS011;33105;47.964;7.982;2023-09-19T12:41:49;1.52;;;1.20;;
47365;SDS011;33105;47.964;7.982;2023-09-19T12:44:52;4.50;;;1.33;;
47365;SDS011;33105;47.964;7.982;2023-09-19T12:51:22;1.88;;;1.15;;
47365;SDS011;33105;47.964;7.982;2023-09-19T12:54:37;1.73;;;0.90;;
47365;SDS011;33105;47.964;7.982;2023-09-19T12:57:43;3.90;;;1.13;;
47365;SDS011;33105;47.964;7.982;2023-09-19T13:00:45;2.88;;;0.95;;
47365;SDS011;33105;47.964;7.982;2023-09-19T13:04:10;5.35;;;1.55;;
47365;SDS011;33105;47.964;7.982;2023-09-19T13:14:13;6.03;;;1.85;;
47365;SDS011;33105;47.964;7.982;2023-09-19T13:17:17;3.13;;;1.00;;
47365;SDS011;33105;47.964;7.982;2023-09-19T13:20:27;6.15;;;1.80;;
47365;SDS011;33105;47.964;7.982;2023-09-19T13:23:29;0.97;;;0.87;;
47365;SDS011;33105;47.964;7.982;2023-09-19T13:26:30;3.05;;;0.80;;
47365;SDS011;33105;47.964;7.982;2023-09-19T13:29:33;3.30;;;0.93;;
47365;SDS011;33105;47.964;7.982;2023-09-19T13:32:36;1.85;;;0.68;;
47365;SDS011;33105;47.964;7.982;2023-09-19T13:35:38;1.05;;;0.60;;
47365;SDS011;33105;47.964;7.982;2023-09-19T13:38:42;0.93;;;0.70;;
47365;SDS011;33105;47.964;7.982;2023-09-19T13:41:45;3.17;;;0.70;;
47365;SDS011;33105;47.964;7.982;2023-09-19T13:44:49;3.05;;;0.90;;
47365;SDS011;33105;47.964;7.982;2023-09-19T13:47:52;3.70;;;0.85;;
47365;SDS011;33105;47.964;7.982;2023-09-19T13:50:56;1.92;;;1.00;;
47365;SDS011;33105;47.964;7.982;2023-09-19T13:53:58;2.45;;;0.80;;
47365;SDS011;33105;47.964;7.982;2023-09-19T13:57:01;2.13;;;0.90;;
47365;SDS011;33105;47.964;7.982;2023-09-19T14:00:03;3.55;;;0.90;;
47365;SDS011;33105;47.964;7.982;2023-09-19T14:03:13;1.40;;;0.80;;
47365;SDS011;33105;47.964;7.982;2023-09-19T14:06:17;5.90;;;1.05;;
47365;SDS011;33105;47.964;7.982;2023-09-19T14:09:19;2.25;;;0.80;;
47365;SDS011;33105;47.964;7.982;2023-09-19T14:12:20;2.25;;;0.70;;
47365;SDS011;33105;47.964;7.982;2023-09-19T14:15:22;3.15;;;0.70;;
47365;SDS011;33105;47.964;7.982;2023-09-19T14:18:30;1.15;;;0.70;;
47365;SDS011;33105;47.964;7.982;2023-09-19T14:21:32;3.97;;;0.65;;
47365;SDS011;33105;47.964;7.982;2023-09-19T14:24:33;1.35;;;0.70;;
47365;SDS011;33105;47.964;7.982;2023-09-19T14:27:35;3.20;;;0.80;;
47365;SDS011;33105;47.964;7.982;2023-09-19T14:30:37;2.33;;;0.70;;
47365;SDS011;33105;47.964;7.982;2023-09-19T14:33:39;0.88;;;0.70;;
47365;SDS011;33105;47.964;7.982;2023-09-19T14:36:41;0.98;;;0.50;;
47365;SDS011;33105;47.964;7.982;2023-09-19T14:39:42;1.58;;;0.80;;
47365;SDS011;33105;47.964;7.982;2023-09-19T14:42:46;1.88;;;0.57;;
47365;SDS011;33105;47.964;7.982;2023-09-19T14:45:52;1.05;;;0.60;;
47365;SDS011;33105;47.964;7.982;2023-09-19T14:48:53;1.52;;;0.85;;
47365;SDS011;33105;47.964;7.982;2023-09-19T14:51:55;3.00;;;0.68;;
47365;SDS011;33105;47.964;7.982;2023-09-19T14:54:56;2.60;;;0.80;;
47365;SDS011;33105;47.964;7.982;2023-09-19T14:57:57;2.53;;;1.02;;
47365;SDS011;33105;47.964;7.982;2023-09-19T15:04:09;2.80;;;0.90;;
47365;SDS011;33105;47.964;7.982;2023-09-19T15:07:10;3.00;;;0.98;;
47365;SDS011;33105;47.964;7.982;2023-09-19T15:10:12;1.05;;;0.85;;
47365;SDS011;33105;47.964;7.982;2023-09-19T15:13:14;1.65;;;0.90;;
47365;SDS011;33105;47.964;7.982;2023-09-19T15:16:15;1.60;;;0.73;;
47365;SDS011;33105;47.964;7.982;2023-09-19T15:19:17;2.47;;;0.88;;
47365;SDS011;33105;47.964;7.982;2023-09-19T15:22:18;2.97;;;0.80;;
47365;SDS011;33105;47.964;7.982;2023-09-19T15:25:20;2.00;;;0.90;;
47365;SDS011;33105;47.964;7.982;2023-09-19T15:28:22;1.67;;;0.98;;
47365;SDS011;33105;47.964;7.982;2023-09-19T15:31:23;2.15;;;0.80;;
47365;SDS011;33105;47.964;7.982;2023-09-19T15:34:25;1.42;;;0.90;;
47365;SDS011;33105;47.964;7.982;2023-09-19T15:37:26;2.10;;;1.05;;
47365;SDS011;33105;47.964;7.982;2023-09-19T15:40:27;1.75;;;0.73;;
47365;SDS011;33105;47.964;7.982;2023-09-19T15:43:30;1.02;;;0.88;;
47365;SDS011;33105;47.964;7.982;2023-09-19T15:46:32;1.05;;;0.90;;
47365;SDS011;33105;47.964;7.982;2023-09-19T15:49:37;2.40;;;0.90;;
47365;SDS011;33105;47.964;7.982;2023-09-19T15:52:39;2.92;;;0.77;;
47365;SDS011;33105;47.964;7.982;2023-09-19T15:55:41;2.88;;;1.05;;
47365;SDS011;33105;47.964;7.982;2023-09-19T15:58:45;1.42;;;0.98;;
47365;SDS011;33105;47.964;7.982;2023-09-19T16:01:47;2.78;;;0.90;;
47365;SDS011;33105;47.964;7.982;2023-09-19T16:04:49;3.80;;;1.35;;
47365;SDS011;33105;47.964;7.982;2023-09-19T16:07:50;5.18;;;0.85;;
47365;SDS011;33105;47.964;7.982;2023-09-19T16:10:51;0.80;;;0.80;;
47365;SDS011;33105;47.964;7.982;2023-09-19T16:13:53;6.47;;;1.30;;
47365;SDS011;33105;47.964;7.982;2023-09-19T16:16:54;1.33;;;0.85;;
47365;SDS011;33105;47.964;7.982;2023-09-19T16:19:56;2.88;;;1.13;;
47365;SDS011;33105;47.964;7.982;2023-09-19T16:22:57;1.60;;;0.90;;
47365;SDS011;33105;47.964;7.982;2023-09-19T16:26:02;3.47;;;1.00;;
47365;SDS011;33105;47.964;7.982;2023-09-19T16:29:07;1.27;;;0.77;;
47365;SDS011;33105;47.964;7.982;2023-09-19T16:32:10;2.70;;;1.25;;
47365;SDS011;33105;47.964;7.982;2023-09-19T16:35:12;3.53;;;1.15;;
47365;SDS011;33105;47.964;7.982;2023-09-19T16:38:13;2.42;;;1.10;;
47365;SDS011;33105;47.964;7.982;2023-09-19T16:41:16;3.10;;;1.10;;
47365;SDS011;33105;47.964;7.982;2023-09-19T16:44:18;3.63;;;1.10;;
47365;SDS011;33105;47.964;7.982;2023-09-19T16:47:21;4.55;;;1.05;;
47365;SDS011;33105;47.964;7.982;2023-09-19T16:50:24;2.53;;;0.90;;
47365;SDS011;33105;47.964;7.982;2023-09-19T16:53:26;3.47;;;1.15;;
47365;SDS011;33105;47.964;7.982;2023-09-19T16:56:27;1.15;;;0.65;;
47365;SDS011;33105;47.964;7.982;2023-09-19T16:59:29;3.15;;;0.85;;
47365;SDS011;33105;47.964;7.982;2023-09-19T17:02:30;2.90;;;0.75;;
47365;SDS011;33105;47.964;7.982;2023-09-19T17:05:32;1.50;;;0.88;;
47365;SDS011;33105;47.964;7.982;2023-09-19T17:08:34;2.53;;;1.00;;
47365;SDS011;33105;47.964;7.982;2023-09-19T17:11:35;4.25;;;1.00;;
47365;SDS011;33105;47.964;7.982;2023-09-19T17:14:36;3.50;;;1.00;;
47365;SDS011;33105;47.964;7.982;2023-09-19T17:17:37;2.17;;;1.02;;
47365;SDS011;33105;47.964;7.982;2023-09-19T17:20:40;4.28;;;1.15;;
47365;SDS011;33105;47.964;7.982;2023-09-19T17:23:42;2.47;;;1.30;;
47365;SDS011;33105;47.964;7.982;2023-09-19T17:26:43;2.15;;;1.08;;
47365;SDS011;33105;47.964;7.982;2023-09-19T17:29:45;4.93;;;1.08;;
47365;SDS011;33105;47.964;7.982;2023-09-19T17:32:48;2.75;;;1.00;;
47365;SDS011;33105;47.964;7.982;2023-09-19T17:35:50;1.63;;;1.00;;
47365;SDS011;33105;47.964;7.982;2023-09-19T17:38:55;1.90;;;1.08;;
47365;SDS011;33105;47.964;7.982;2023-09-19T17:41:59;3.67;;;1.42;;
47365;SDS011;33105;47.964;7.982;2023-09-19T17:45:02;2.60;;;1.15;;
47365;SDS011;33105;47.964;7.982;2023-09-19T17:48:05;3.58;;;1.10;;
47365;SDS011;33105;47.964;7.982;2023-09-19T17:51:07;5.00;;;1.30;;
47365;SDS011;33105;47.964;7.982;2023-09-19T17:54:09;4.72;;;1.20;;
47365;SDS011;33105;47.964;7.982;2023-09-19T17:57:11;6.18;;;1.27;;
47365;SDS011;33105;47.964;7.982;2023-09-19T18:00:12;5.85;;;1.20;;
47365;SDS011;33105;47.964;7.982;2023-09-19T18:03:15;7.85;;;0.90;;
47365;SDS011;33105;47.964;7.982;2023-09-19T18:06:17;3.30;;;1.17;;
47365;SDS011;33105;47.964;7.982;2023-09-19T18:09:19;2.38;;;1.30;;
47365;SDS011;33105;47.964;7.982;2023-09-19T18:12:22;5.32;;;1.30;;
47365;SDS011;33105;47.964;7.982;2023-09-19T18:15:23;5.97;;;1.20;;
47365;SDS011;33105;47.964;7.982;2023-09-19T18:18:25;3.25;;;1.20;;
47365;SDS011;33105;47.964;7.982;2023-09-19T18:21:27;4.05;;;1.33;;
47365;SDS011;33105;47.964;7.982;2023-09-19T18:24:28;4.97;;;1.25;;
47365;SDS011;33105;47.964;7.982;2023-09-19T18:27:30;2.35;;;1.20;;
47365;SDS011;33105;47.964;7.982;2023-09-19T18:30:31;2.08;;;1.00;;
47365;SDS011;33105;47.964;7.982;2023-09-19T18:33:35;1.25;;;0.90;;
47365;SDS011;33105;47.964;7.982;2023-09-19T18:36:36;3.35;;;1.08;;
47365;SDS011;33105;47.964;7.982;2023-09-19T18:39:38;1.80;;;1.08;;
47365;SDS011;33105;47.964;7.982;2023-09-19T18:42:39;6.80;;;1.13;;
47365;SDS011;33105;47.964;7.982;2023-09-19T18:45:41;1.42;;;1.17;;
47365;SDS011;33105;47.964;7.982;2023-09-19T18:48:44;2.88;;;1.15;;
47365;SDS011;33105;47.964;7.982;2023-09-19T18:51:46;2.20;;;1.17;;
47365;SDS011;33105;47.964;7.982;2023-09-19T18:54:48;6.35;;;1.40;;
47365;SDS011;33105;47.964;7.982;2023-09-19T18:57:51;2.58;;;1.30;;
47365;SDS011;33105;47.964;7.982;2023-09-19T19:00:58;2.33;;;1.08;;
47365;SDS011;33105;47.964;7.982;2023-09-19T19:04:01;3.15;;;1.42;;
47365;SDS011;33105;47.964;7.982;2023-09-19T19:07:02;3.83;;;1.40;;
47365;SDS011;33105;47.964;7.982;2023-09-19T19:10:04;2.75;;;1.30;;
47365;SDS011;33105;47.964;7.982;2023-09-19T19:13:08;2.72;;;1.48;;
47365;SDS011;33105;47.964;7.982;2023-09-19T19:16:10;5.32;;;1.50;;
47365;SDS011;33105;47.964;7.982;2023-09-19T19:19:13;2.08;;;1.30;;